Aérodrome :
LOGIN :

S'inscrire | Disclaimer

   EN    FR    IT 

 










Légende :    VFR   VFR Marginal   IFR   IFR Intensif   IFR Très Intensif
Visi : 
Plafond : 
>= 8 km
>= 3000ft
5 à 8 km
1000 à 3000 ft
1500m à 5 km
500 à 1000 ft
800 à 1500m
200 à 500 ft
< 800m
< 200 ft
Symboles :   Orages  Brouillard  Fortes neiges  Fortes précipitations  Vent > 20 kt
SIGMETs :   Divers  Orages  Givrage  Turbulence  Onde Orograph.  Cendres Volcan.







- Altitude de l'aérodrome : 202 ft
- Code IATA : LGW
- Voir les cartes d'approche


EGKK - London Gatwick

DERNIER METAR :
  • 011720Z 21004KT 9999 FEW006 BKN010 07/06 Q0997

METARs EXPIRÉS :
  • 011650Z 22004KT 9999 SCT014 BKN027 07/06 Q0998 REDZ
  • 011620Z 23004KT 4000 DZ SCT010 BKN014 07/06 Q0998 RESHRA
  • 011550Z 23004KT 4000 SHRA FEW007 BKN013 07/06 Q0998
  • 011520Z 23006KT 8000 VCSH FEW015 BKN023 07/05 Q0998
  • 011450Z 22006KT 7000 -SHRA SCT013 BKN020 07/05 Q0998

TAF TAF EGKK
Valide du 01 à 18h jusqu'au 03 à 00h UTC


011701Z 0118/0224 22008KT 9999 SCT010 BKN014
TEMPO 0118/0121 6000 -RADZ BKN010
PROB30
TEMPO 0118/0121 3500 RADZ BKN007
BECMG 0120/0122 9999 NSW SCT020
BECMG 0121/0124 25018G28KT
PROB30
TEMPO 0200/0208 27028G40KT
BECMG 0210/0213 26018KT
BECMG 0215/0218 20008KT
Pas de NOTAMs connus pour ce terrain.
1 SIGMET publié pour la FIR London (EGTT) :
 
Turbulence forte
EGTT SIGMET 01 VALID 011630/012000 EGRR
EGTT LONDON FIR SEV TURB FCST SW OF LINE N5113 W00736 - N4945 W00318 SFC/FL060 MOV ENE 25KT INTSF=



MET'MAP, la Météo Aéronautique d'un coup d'oeil ! - Copyright ORBIFLY Décembre 2007 - Disclaimer

ORBIFLY MET'MAP TEAM :

Programmation & Développement : Alexandra Zaïnal
Conception & Développement : Baudouin d'Aumeries
Co-Programmation & Développement : Marc-Olivier Méhu
Soutien technique & logistique : Manuel Goepfert

Contact : metmap@orbifly.com




SOURCES & CREDITS :

   NOAA